Time;durP1;ratioP1;P1;durP2;ratioP2;P2;SDS_P1;SDS_P2;PMS_P1;PMS_P2;Temp;Humidity;BMP_temperature;BMP_pressure;BME280_temperature;BME280_humidity;BME280_pressure;Samples;Min_cycle;Max_cycle;Signal;HPM_P1;HPM_P2
2022/06/07 00:02:28;;;;;;;2.17;1.97;;;16.90;99.90;;;;;;5012575;28;20976;-69
2022/06/07 00:04:56;;;;;;;3.70;2.53;;;16.90;99.90;;;;;;5012782;28;20476;-68
2022/06/07 00:07:25;;;;;;;2.13;1.93;;;16.90;99.90;;;;;;5012548;28;21251;-69
2022/06/07 00:09:52;;;;;;;1.90;1.70;;;16.90;99.90;;;;;;5012401;28;20968;-68
2022/06/07 00:12:19;;;;;;;2.40;2.20;;;16.90;99.90;;;;;;5012729;28;20469;-69
2022/06/07 00:14:47;;;;;;;2.13;1.60;;;16.90;99.90;;;;;;5012984;28;20469;-68
2022/06/07 00:17:14;;;;;;;2.00;1.80;;;16.90;99.90;;;;;;5012720;28;20472;-68
2022/06/07 00:19:42;;;;;;;2.20;2.00;;;16.90;99.90;;;;;;5012414;28;20883;-70
2022/06/07 00:22:09;;;;;;;1.90;1.80;;;16.90;99.90;;;;;;5012204;28;20476;-69
2022/06/07 00:24:35;;;;;;;2.10;1.90;;;17.00;99.90;;;;;;5012766;28;20834;-69
2022/06/07 00:27:03;;;;;;;2.60;2.17;;;16.90;99.90;;;;;;5012059;28;20477;-69
2022/06/07 00:29:31;;;;;;;2.70;1.80;;;17.00;99.90;;;;;;5012153;28;20461;-69
2022/06/07 00:32:01;;;;;;;2.40;1.90;;;17.00;99.90;;;;;;5012552;28;20517;-68
2022/06/07 00:34:28;;;;;;;2.60;1.77;;;16.90;99.90;;;;;;5012639;28;20488;-69
2022/06/07 00:36:55;;;;;;;2.50;2.30;;;16.90;99.90;;;;;;5012117;28;20476;-69
2022/06/07 00:39:21;;;;;;;3.10;2.10;;;16.90;99.90;;;;;;5012195;28;20461;-69
2022/06/07 00:41:48;;;;;;;2.03;1.67;;;16.80;99.90;;;;;;5012455;28;20831;-68
2022/06/07 00:44:32;;;;;;;3.20;1.97;;;16.80;99.90;;;;;;5012061;28;20488;-69
2022/06/07 00:47:02;;;;;;;2.10;1.90;;;16.80;99.90;;;;;;5012375;28;20468;-69
2022/06/07 00:49:33;;;;;;;2.50;2.30;;;16.80;99.90;;;;;;5011588;28;20465;-70
2022/06/07 00:52:00;;;;;;;2.20;2.00;;;16.80;99.90;;;;;;5011458;28;20468;-68
2022/06/07 00:54:30;;;;;;;2.37;1.83;;;16.80;99.90;;;;;;5010908;28;20889;-68
2022/06/07 00:56:57;;;;;;;2.80;2.17;;;16.80;99.90;;;;;;5011227;28;20461;-68
2022/06/07 00:59:24;;;;;;;2.27;1.80;;;16.80;99.90;;;;;;5011469;28;20461;-69
2022/06/07 01:01:51;;;;;;;1.83;1.63;;;16.80;99.90;;;;;;5011904;28;20489;-68
2022/06/07 01:04:21;;;;;;;2.20;2.00;;;16.80;99.90;;;;;;5011975;28;20489;-69
2022/06/07 01:12:16;;;;;;;2.10;1.87;;;16.70;99.90;;;;;;5011591;28;20920;-69
2022/06/07 01:14:43;;;;;;;1.83;1.73;;;16.70;99.90;;;;;;5011538;28;20465;-69
2022/06/07 01:17:11;;;;;;;2.00;1.80;;;16.70;99.90;;;;;;5011651;28;20461;-67
2022/06/07 01:19:39;;;;;;;2.30;1.63;;;16.70;99.90;;;;;;5010780;28;20519;-68
2022/06/07 01:22:07;;;;;;;2.10;1.90;;;16.70;99.90;;;;;;5011242;28;20568;-69
2022/06/07 01:24:35;;;;;;;2.60;1.87;;;16.60;99.90;;;;;;5011689;28;21060;-68
2022/06/07 01:27:02;;;;;;;2.87;2.47;;;16.50;99.90;;;;;;5011205;28;20552;-68
2022/06/07 01:29:29;;;;;;;2.47;2.10;;;16.50;99.90;;;;;;5010847;28;20465;-67
2022/06/07 01:31:56;;;;;;;3.30;2.20;;;16.40;99.90;;;;;;5011206;28;20484;-68
2022/06/07 01:34:22;;;;;;;2.60;2.17;;;16.40;99.90;;;;;;5011288;28;20495;-68
2022/06/07 01:36:49;;;;;;;1.87;1.77;;;16.40;99.90;;;;;;5011293;28;20465;-67
2022/06/07 01:42:02;;;;;;;2.30;2.10;;;16.30;99.90;;;;;;5011378;28;20530;-69
2022/06/07 01:44:30;;;;;;;2.53;2.00;;;16.20;99.90;;;;;;5010964;28;20485;-68
2022/06/07 01:46:59;;;;;;;3.10;1.97;;;16.20;99.90;;;;;;5010183;28;20465;-67
2022/06/07 01:49:26;;;;;;;2.00;1.90;;;16.10;99.90;;;;;;5009960;28;20461;-68
2022/06/07 01:51:54;;;;;;;2.53;2.03;;;16.10;99.90;;;;;;5010614;28;20457;-68
2022/06/07 01:54:23;;;;;;;6.33;2.67;;;16.10;99.90;;;;;;5009916;28;20900;-67
2022/06/07 01:56:50;;;;;;;4.10;1.97;;;16.00;99.90;;;;;;5010349;28;20461;-68
2022/06/07 01:59:17;;;;;;;3.23;2.20;;;16.00;99.90;;;;;;5010379;28;20503;-69
2022/06/07 02:01:45;;;;;;;2.23;2.03;;;16.10;99.90;;;;;;5010496;28;20492;-68
2022/06/07 02:04:12;;;;;;;4.33;2.00;;;16.10;99.90;;;;;;5010780;28;20535;-69
2022/06/07 02:06:40;;;;;;;2.30;2.10;;;16.00;99.90;;;;;;5010375;28;20488;-68
2022/06/07 02:09:08;;;;;;;2.47;2.00;;;16.00;99.90;;;;;;5010142;28;20843;-68
2022/06/07 02:11:38;;;;;;;2.40;2.20;;;15.90;99.90;;;;;;5010809;28;20479;-68
2022/06/07 02:14:05;;;;;;;1.67;1.57;;;15.90;99.90;;;;;;5009338;28;21008;-69
2022/06/07 02:16:32;;;;;;;2.80;2.00;;;15.90;99.90;;;;;;5011021;28;20701;-69
2022/06/07 02:18:59;;;;;;;2.40;2.20;;;15.80;99.90;;;;;;5009926;28;20472;-68
2022/06/07 02:21:26;;;;;;;2.80;2.00;;;15.80;99.90;;;;;;5010890;28;20902;-68
2022/06/07 02:23:54;;;;;;;2.60;2.40;;;15.80;99.90;;;;;;5010488;28;20493;-68
2022/06/07 02:26:23;;;;;;;2.50;2.03;;;15.80;99.90;;;;;;5010877;28;20473;-68
2022/06/07 02:28:55;;;;;;;2.00;1.90;;;15.70;99.90;;;;;;5009564;28;20458;-68
2022/06/07 02:31:24;;;;;;;3.93;2.30;;;15.70;99.90;;;;;;5010791;28;20883;-68
2022/06/07 02:33:51;;;;;;;2.30;2.03;;;15.70;99.90;;;;;;5010714;28;21023;-68
2022/06/07 02:36:18;;;;;;;3.33;2.00;;;15.70;99.90;;;;;;5010328;28;20480;-67
2022/06/07 02:38:46;;;;;;;2.13;1.87;;;15.70;99.90;;;;;;5010184;28;20465;-68
2022/06/07 02:41:17;;;;;;;3.87;2.10;;;15.60;99.90;;;;;;5010060;28;20473;-69
2022/06/07 02:43:44;;;;;;;2.50;2.30;;;15.60;99.90;;;;;;5010280;28;20481;-69
2022/06/07 02:46:12;;;;;;;2.30;2.10;;;15.60;99.90;;;;;;5010548;28;20472;-68
2022/06/07 02:48:38;;;;;;;2.53;1.97;;;15.60;99.90;;;;;;5009310;28;20883;-67
2022/06/07 02:51:05;;;;;;;2.77;2.10;;;15.60;99.90;;;;;;5011345;28;20457;-68
2022/06/07 02:53:33;;;;;;;2.10;2.00;;;15.50;99.90;;;;;;5012724;28;20492;-68
2022/06/07 02:55:59;;;;;;;3.50;2.03;;;15.50;99.90;;;;;;5012910;28;20878;-68
2022/06/07 02:58:27;;;;;;;2.47;2.27;;;15.50;99.90;;;;;;5013517;28;20461;-69
2022/06/07 03:00:55;;;;;;;2.37;2.17;;;15.40;99.90;;;;;;5014387;28;20500;-67
2022/06/07 03:03:23;;;;;;;2.53;2.20;;;15.40;99.90;;;;;;5014393;28;20488;-69
2022/06/07 03:05:50;;;;;;;1.60;1.50;;;15.40;99.90;;;;;;5012682;28;20461;-68
2022/06/07 03:08:18;;;;;;;2.17;1.83;;;15.40;99.90;;;;;;5012089;28;20472;-68
2022/06/07 03:10:45;;;;;;;2.43;1.77;;;15.40;99.90;;;;;;5012954;28;20469;-69
2022/06/07 03:13:13;;;;;;;2.70;1.83;;;15.40;99.90;;;;;;5013101;28;20480;-69
2022/06/07 03:15:40;;;;;;;2.13;1.80;;;15.40;99.90;;;;;;5012563;28;21027;-68
2022/06/07 03:18:07;;;;;;;2.27;1.93;;;15.30;99.90;;;;;;5011903;28;20468;-69
2022/06/07 03:20:36;;;;;;;3.70;1.50;;;15.30;99.90;;;;;;5013273;28;20457;-69
2022/06/07 03:23:02;;;;;;;3.13;1.87;;;15.30;99.90;;;;;;5013812;28;20489;-69
2022/06/07 03:25:29;;;;;;;1.30;1.20;;;15.30;99.90;;;;;;5012392;28;20465;-67
2022/06/07 03:27:56;;;;;;;2.00;1.83;;;15.30;99.90;;;;;;5012052;28;20464;-67
2022/06/07 03:30:23;;;;;;;2.20;2.00;;;15.30;99.90;;;;;;5011953;28;20465;-68
2022/06/07 03:32:49;;;;;;;2.13;1.70;;;15.30;99.90;;;;;;5013626;28;20476;-67
2022/06/07 03:35:16;;;;;;;2.90;1.97;;;15.30;99.90;;;;;;5015208;28;20468;-68
2022/06/07 03:37:45;;;;;;;1.50;1.40;;;15.20;99.90;;;;;;5023420;28;20463;-69
2022/06/07 03:40:42;;;;;;;2.20;2.00;;;15.20;99.90;;;;;;5021614;28;20804;-70
2022/06/07 03:43:02;;;;;;;1.73;1.50;;;15.30;99.90;;;;;;5020819;28;20911;-69
2022/06/07 03:45:29;;;;;;;2.40;1.50;;;15.20;99.90;;;;;;5024212;28;20463;-69
2022/06/07 03:47:56;;;;;;;1.90;1.47;;;15.20;99.90;;;;;;5022534;28;20476;-68
2022/06/07 03:50:23;;;;;;;2.67;1.50;;;15.20;99.90;;;;;;5022290;28;20464;-68
2022/06/07 03:52:51;;;;;;;1.60;1.50;;;15.10;99.90;;;;;;5023983;28;20473;-69
2022/06/07 03:55:18;;;;;;;2.03;1.40;;;15.10;99.90;;;;;;5018327;28;21036;-68
2022/06/07 03:57:45;;;;;;;2.37;1.63;;;15.20;99.90;;;;;;5012796;28;20458;-69
2022/06/07 04:00:12;;;;;;;1.70;1.43;;;15.20;99.90;;;;;;5020118;28;20457;-67
2022/06/07 04:02:39;;;;;;;2.00;1.50;;;15.10;99.90;;;;;;5021174;28;20484;-68
2022/06/07 04:05:06;;;;;;;2.23;1.50;;;15.20;99.90;;;;;;5017380;28;20482;-67
2022/06/07 04:10:19;;;;;;;1.43;1.33;;;15.20;99.90;;;;;;5020957;28;20441;-68
2022/06/07 04:12:46;;;;;;;3.40;1.50;;;15.20;99.90;;;;;;5023406;28;20512;-68
2022/06/07 04:15:13;;;;;;;1.87;1.40;;;15.20;99.90;;;;;;5020491;28;20464;-68
2022/06/07 04:17:39;;;;;;;3.97;1.80;;;15.20;99.90;;;;;;5021566;28;20468;-69
2022/06/07 04:20:07;;;;;;;2.93;1.43;;;15.20;99.90;;;;;;5021752;28;20457;-69
2022/06/07 04:22:34;;;;;;;2.80;1.67;;;15.20;99.90;;;;;;5020846;28;20485;-69
2022/06/07 04:25:01;;;;;;;1.93;1.57;;;15.20;99.90;;;;;;5020953;28;20452;-69
2022/06/07 04:27:29;;;;;;;1.50;1.40;;;15.20;99.90;;;;;;5017121;28;20464;-68
2022/06/07 04:29:55;;;;;;;1.90;1.60;;;15.20;99.90;;;;;;5016255;28;20465;-68
2022/06/07 04:32:22;;;;;;;2.33;1.70;;;15.20;99.90;;;;;;5031730;28;20463;-68
2022/06/07 04:34:49;;;;;;;2.10;1.90;;;15.20;99.90;;;;;;5030159;28;20467;-68
2022/06/07 04:37:17;;;;;;;1.50;1.40;;;15.20;99.90;;;;;;5031011;28;20471;-69
2022/06/07 04:39:43;;;;;;;1.77;1.60;;;15.20;99.90;;;;;;5031137;28;20551;-69
2022/06/07 04:42:10;;;;;;;1.90;1.70;;;15.20;99.90;;;;;;5032108;28;20487;-68
2022/06/07 04:44:38;;;;;;;1.63;1.47;;;15.20;99.90;;;;;;5032272;28;20857;-68
2022/06/07 04:47:05;;;;;;;1.90;1.70;;;15.20;99.90;;;;;;5032004;28;20467;-68
2022/06/07 04:49:32;;;;;;;2.23;1.80;;;15.20;99.90;;;;;;5031670;28;20975;-68
2022/06/07 04:51:58;;;;;;;2.13;1.93;;;15.20;99.90;;;;;;5031982;28;20834;-68
2022/06/07 04:54:25;;;;;;;2.23;2.03;;;15.20;99.90;;;;;;5032153;28;20857;-68
2022/06/07 04:56:55;;;;;;;1.63;1.53;;;15.30;99.90;;;;;;5032006;28;20464;-68
2022/06/07 04:59:21;;;;;;;2.20;1.50;;;15.30;99.90;;;;;;5031396;28;20475;-68
2022/06/07 05:01:49;;;;;;;1.93;1.50;;;15.30;99.90;;;;;;5031777;28;20487;-68
2022/06/07 05:04:16;;;;;;;2.00;1.47;;;15.30;99.90;;;;;;5031695;28;20484;-68
2022/06/07 05:06:43;;;;;;;1.90;1.80;;;15.30;99.90;;;;;;5031885;28;20468;-68
2022/06/07 05:09:12;;;;;;;1.93;1.70;;;15.20;99.90;;;;;;5031058;28;20479;-67
2022/06/07 05:11:39;;;;;;;1.93;1.83;;;15.30;99.90;;;;;;5031742;28;20463;-68
2022/06/07 05:14:07;;;;;;;1.57;1.47;;;15.20;99.90;;;;;;5030589;28;20489;-69
2022/06/07 05:16:37;;;;;;;2.30;2.10;;;15.30;99.90;;;;;;5031664;28;20467;-69
2022/06/07 05:19:06;;;;;;;2.00;1.80;;;15.30;99.90;;;;;;5031052;28;20460;-69
2022/06/07 05:21:33;;;;;;;3.17;2.03;;;15.30;99.90;;;;;;5031460;28;20480;-69
2022/06/07 05:23:59;;;;;;;2.43;2.23;;;15.30;99.90;;;;;;5031261;28;20480;-68
2022/06/07 05:26:33;;;;;;;1.90;1.80;;;15.30;99.90;;;;;;5031514;28;20464;-69
2022/06/07 05:29:00;;;;;;;2.20;2.00;;;15.30;99.90;;;;;;5030677;28;20468;-69
2022/06/07 05:31:27;;;;;;;1.67;1.57;;;15.30;99.90;;;;;;5031431;28;20464;-68
2022/06/07 05:33:54;;;;;;;2.40;2.10;;;15.30;99.90;;;;;;5103685;22;21419;-71
2022/06/07 05:36:23;;;;;;;2.30;2.10;;;15.40;99.90;;;;;;5050592;28;20444;-71
2022/06/07 05:38:50;;;;;;;2.07;1.73;;;15.40;99.90;;;;;;5050623;28;20459;-71
2022/06/07 05:41:20;;;;;;;2.20;2.00;;;15.40;99.90;;;;;;5051226;28;20550;-72
2022/06/07 05:43:47;;;;;;;2.13;1.93;;;15.50;99.90;;;;;;5051064;28;20498;-71
2022/06/07 05:46:14;;;;;;;2.90;1.90;;;15.50;99.90;;;;;;5051595;28;20473;-71
2022/06/07 05:48:41;;;;;;;2.00;1.90;;;15.50;99.90;;;;;;5050667;28;20465;-71
2022/06/07 05:51:07;;;;;;;2.73;2.00;;;15.60;99.90;;;;;;5051351;28;20962;-71
2022/06/07 05:53:36;;;;;;;1.60;1.50;;;15.70;99.90;;;;;;5051175;28;20482;-71
2022/06/07 05:56:07;;;;;;;2.20;1.90;;;15.70;99.90;;;;;;5051388;28;20463;-71
2022/06/07 05:58:34;;;;;;;2.50;2.03;;;15.70;99.90;;;;;;5044812;28;20457;-71
2022/06/07 06:01:01;;;;;;;2.33;2.00;;;15.70;99.90;;;;;;5030978;28;20487;-71
2022/06/07 06:03:27;;;;;;;2.70;1.90;;;15.70;99.90;;;;;;5030888;28;20492;-71
2022/06/07 06:05:54;;;;;;;2.17;2.00;;;15.80;99.90;;;;;;5030994;28;20471;-71
2022/06/07 06:11:09;;;;;;;1.77;1.67;;;15.80;99.90;;;;;;5031067;28;20994;-70
2022/06/07 06:13:36;;;;;;;2.20;2.00;;;15.80;99.90;;;;;;5030646;28;20483;-71
2022/06/07 06:16:05;;;;;;;1.90;1.80;;;15.90;99.90;;;;;;5030851;28;20460;-72
2022/06/07 06:18:32;;;;;;;2.50;2.20;;;16.00;99.90;;;;;;5030315;28;20472;-71
2022/06/07 06:20:59;;;;;;;2.13;1.93;;;16.00;99.90;;;;;;5030901;28;20464;-71
2022/06/07 06:23:26;;;;;;;2.07;1.87;;;16.00;99.90;;;;;;5030675;28;20488;-71
2022/06/07 06:25:53;;;;;;;4.20;1.90;;;16.10;99.90;;;;;;5030490;28;20464;-70
2022/06/07 06:28:21;;;;;;;2.60;2.40;;;16.20;99.90;;;;;;5030511;28;20986;-71
2022/06/07 06:30:48;;;;;;;2.50;1.87;;;16.20;99.90;;;;;;5030861;28;20534;-71
2022/06/07 06:33:16;;;;;;;1.90;1.80;;;16.20;99.90;;;;;;5031069;28;20524;-71
2022/06/07 06:35:48;;;;;;;3.10;1.80;;;16.20;99.90;;;;;;5031332;28;20476;-71
2022/06/07 06:38:15;;;;;;;2.93;2.00;;;16.20;99.90;;;;;;5030243;28;20834;-71
2022/06/07 06:40:43;;;;;;;4.13;2.17;;;16.30;99.90;;;;;;5030364;28;20457;-71
2022/06/07 06:43:10;;;;;;;1.53;1.40;;;16.40;99.90;;;;;;5030363;28;20514;-70
2022/06/07 06:45:39;;;;;;;2.23;1.83;;;16.60;99.90;;;;;;5030204;28;20847;-71
2022/06/07 06:48:07;;;;;;;2.13;1.93;;;16.60;99.90;;;;;;5029963;28;20487;-71
2022/06/07 06:50:34;;;;;;;6.20;1.80;;;16.70;99.90;;;;;;5030461;28;20476;-71
2022/06/07 06:53:00;;;;;;;4.03;2.00;;;16.80;99.90;;;;;;5030193;28;20486;-71
2022/06/07 06:55:27;;;;;;;1.70;1.60;;;16.70;99.90;;;;;;5030456;28;20456;-71
2022/06/07 06:57:54;;;;;;;1.80;1.70;;;16.70;99.90;;;;;;5021623;28;20468;-71
2022/06/07 07:00:22;;;;;;;3.60;2.20;;;16.90;99.90;;;;;;5020001;28;20464;-70
2022/06/07 07:02:53;;;;;;;1.93;1.57;;;17.10;99.90;;;;;;5015656;28;20508;-71
2022/06/07 07:05:20;;;;;;;2.23;1.77;;;17.10;99.90;;;;;;5010735;28;20488;-70
2022/06/07 07:07:47;;;;;;;1.70;1.60;;;17.20;99.90;;;;;;5010372;28;20469;-70
2022/06/07 07:10:14;;;;;;;2.60;1.73;;;17.30;99.90;;;;;;5008243;28;20468;-72
2022/06/07 07:12:41;;;;;;;2.10;1.50;;;17.30;99.90;;;;;;5042049;28;20484;-71
2022/06/07 07:15:11;;;;;;;2.90;1.87;;;17.30;99.90;;;;;;5037663;28;20835;-71
2022/06/07 07:17:38;;;;;;;2.23;1.90;;;17.40;99.90;;;;;;5029499;28;20460;-71
2022/06/07 07:20:08;;;;;;;1.73;1.63;;;17.40;99.90;;;;;;5028009;28;20527;-71
2022/06/07 07:22:36;;;;;;;2.60;1.83;;;17.50;99.90;;;;;;5029131;28;20494;-71
2022/06/07 07:25:05;;;;;;;1.70;1.60;;;17.50;99.90;;;;;;5028470;28;21089;-71
2022/06/07 07:27:31;;;;;;;2.63;1.80;;;17.60;99.90;;;;;;5029148;28;20468;-70
2022/06/07 07:29:59;;;;;;;1.77;1.60;;;17.70;99.90;;;;;;5028181;28;20482;-70
2022/06/07 07:32:26;;;;;;;2.03;1.87;;;17.70;99.90;;;;;;5028988;28;20456;-70
2022/06/07 07:34:53;;;;;;;2.03;1.67;;;17.80;99.90;;;;;;5028522;28;20468;-70
2022/06/07 07:37:21;;;;;;;1.97;1.77;;;18.00;99.90;;;;;;5029906;28;20936;-71
2022/06/07 07:39:48;;;;;;;2.80;1.80;;;18.20;99.90;;;;;;5032242;28;20464;-70
2022/06/07 07:42:15;;;;;;;2.23;1.87;;;18.20;99.90;;;;;;5032107;28;20484;-70
2022/06/07 07:44:42;;;;;;;1.70;1.40;;;18.30;99.90;;;;;;5032431;28;21002;-71
2022/06/07 07:47:09;;;;;;;3.80;1.80;;;18.40;99.90;;;;;;5032369;28;20711;-71
2022/06/07 07:49:36;;;;;;;3.47;1.80;;;18.40;99.90;;;;;;5031483;28;20518;-71
2022/06/07 07:52:03;;;;;;;1.30;1.20;;;18.50;99.90;;;;;;5031843;28;20460;-70
2022/06/07 07:54:32;;;;;;;1.40;1.30;;;18.40;99.90;;;;;;5032812;28;20481;-71
2022/06/07 07:56:59;;;;;;;1.57;1.47;;;18.30;99.90;;;;;;5030840;28;20460;-71
2022/06/07 07:59:26;;;;;;;2.70;1.37;;;18.30;99.90;;;;;;5034299;28;20514;-71
2022/06/07 08:01:53;;;;;;;1.70;1.43;;;18.50;99.90;;;;;;5032228;28;20546;-72
2022/06/07 08:04:20;;;;;;;2.93;1.73;;;18.70;99.90;;;;;;5052249;28;20483;-71
2022/06/07 08:06:47;;;;;;;1.53;1.43;;;18.90;99.90;;;;;;5045845;28;20971;-71
2022/06/07 08:09:16;;;;;;;4.93;1.70;;;19.10;99.90;;;;;;5022992;28;20523;-71
2022/06/07 08:11:45;;;;;;;1.83;1.57;;;19.10;99.90;;;;;;5014931;28;20456;-71
2022/06/07 08:14:16;;;;;;;3.00;1.67;;;19.20;99.90;;;;;;5011627;28;20481;-71
2022/06/07 08:16:43;;;;;;;1.70;1.50;;;19.30;99.90;;;;;;5012310;28;20457;-71
2022/06/07 08:19:10;;;;;;;1.30;1.20;;;19.50;99.90;;;;;;5011269;28;20999;-71
2022/06/07 08:21:38;;;;;;;1.80;1.30;;;19.60;99.90;;;;;;5012214;28;20457;-71
2022/06/07 08:24:05;;;;;;;2.47;1.20;;;19.60;99.90;;;;;;5011857;28;20497;-71
2022/06/07 08:26:33;;;;;;;1.70;1.37;;;19.60;99.90;;;;;;5011691;28;20457;-72
2022/06/07 08:29:03;;;;;;;1.17;1.07;;;19.50;99.90;;;;;;5011034;28;20465;-71
2022/06/07 08:31:31;;;;;;;1.53;1.33;;;19.40;99.90;;;;;;5011603;28;20465;-71
2022/06/07 08:39:28;;;;;;;1.47;1.37;;;19.00;99.90;;;;;;5010757;28;20820;-71
2022/06/07 08:41:57;;;;;;;1.30;1.20;;;19.10;99.90;;;;;;5011742;28;20556;-70
2022/06/07 08:44:28;;;;;;;1.80;1.30;;;19.00;99.90;;;;;;5011538;28;20489;-71
2022/06/07 08:46:59;;;;;;;2.40;1.33;;;19.10;99.90;;;;;;5011070;28;20461;-71
2022/06/07 08:49:26;;;;;;;2.00;1.10;;;19.10;99.90;;;;;;5011096;28;20457;-71
2022/06/07 08:52:00;;;;;;;1.30;1.20;;;19.00;99.90;;;;;;5010767;28;20461;-71
2022/06/07 08:54:30;;;;;;;1.50;1.20;;;19.00;99.90;;;;;;5011257;28;20484;-71
2022/06/07 08:57:02;;;;;;;3.10;1.63;;;19.00;99.90;;;;;;5011335;28;20876;-72
2022/06/07 08:59:31;;;;;;;1.87;1.67;;;19.10;99.90;;;;;;5011536;28;20465;-71
2022/06/07 09:02:14;;;;;;;1.80;1.70;;;19.30;99.90;;;;;;5010637;28;20472;-71
2022/06/07 09:04:41;;;;;;;2.03;1.53;;;19.50;99.90;;;;;;5010772;28;20497;-71
2022/06/07 09:07:15;;;;;;;3.07;1.50;;;19.60;99.90;;;;;;5011047;28;20464;-71
2022/06/07 09:12:37;;;;;;;2.47;1.77;;;19.80;99.90;;;;;;5010159;28;20445;-71
2022/06/07 09:15:11;;;;;;;1.73;1.10;;;19.70;99.90;;;;;;5010504;28;20820;-72
2022/06/07 09:17:40;;;;;;;2.23;1.57;;;19.80;99.90;;;;;;5011093;28;21016;-70
2022/06/07 09:20:14;;;;;;;2.53;1.50;;;20.00;99.90;;;;;;5010462;28;20461;-71
2022/06/07 09:22:47;;;;;;;3.00;1.77;;;20.20;99.90;;;;;;5022541;28;20491;-72
2022/06/07 09:25:16;;;;;;;1.70;1.17;;;20.20;99.90;;;;;;5050863;28;20459;-71
2022/06/07 09:27:46;;;;;;;1.50;1.40;;;20.20;99.90;;;;;;5051056;28;20912;-72
2022/06/07 09:30:25;;;;;;;3.20;1.40;;;20.10;99.90;;;;;;5050728;28;20459;-71
2022/06/07 09:32:52;;;;;;;1.47;1.37;;;20.20;99.90;;;;;;5050973;28;20859;-71
2022/06/07 09:35:21;;;;;;;3.53;1.60;;;20.30;99.90;;;;;;5050786;28;20467;-72
2022/06/07 09:37:53;;;;;;;2.10;1.40;;;20.50;99.90;;;;;;5051322;28;20460;-71
2022/06/07 09:40:26;;;;;;;2.20;2.00;;;20.80;99.90;;;;;;5050278;28;20459;-74
2022/06/07 09:43:02;;;;;;;1.60;1.50;;;21.10;99.90;;;;;;5051389;28;20489;-78
2022/06/07 09:45:35;;;;;;;1.90;1.40;;;21.20;99.90;;;;;;5050487;28;20466;-73
2022/06/07 09:48:20;;;;;;;1.67;1.30;;;21.20;99.90;;;;;;5050100;28;20982;-75
2022/06/07 09:50:56;;;;;;;1.73;1.20;;;21.10;99.90;;;;;;5050850;28;20825;-73
2022/06/07 09:53:23;;;;;;;1.63;1.20;;;20.80;99.90;;;;;;5049827;28;20857;-73
2022/06/07 09:56:00;;;;;;;2.93;1.43;;;20.50;99.90;;;;;;5050726;28;20459;-74
2022/06/07 09:58:43;;;;;;;4.47;1.40;;;20.30;99.90;;;;;;5049797;28;20909;-74
2022/06/07 10:01:18;;;;;;;1.73;1.33;;;20.20;99.90;;;;;;5049957;28;20459;-73
2022/06/07 10:03:52;;;;;;;1.70;1.50;;;20.10;99.90;;;;;;5050419;28;20487;-75
2022/06/07 10:06:27;;;;;;;1.20;1.10;;;20.10;99.90;;;;;;5050573;28;20832;-72
2022/06/07 10:09:09;;;;;;;1.60;1.17;;;20.20;99.90;;;;;;5049828;28;21020;-73
2022/06/07 10:11:44;;;;;;;1.10;1.00;;;20.30;99.90;;;;;;5050275;28;20463;-73
2022/06/07 10:14:23;;;;;;;3.17;1.40;;;20.40;99.90;;;;;;5050180;28;20514;-73
2022/06/07 10:17:03;;;;;;;1.60;1.40;;;20.50;99.90;;;;;;5050091;28;20463;-73
2022/06/07 10:19:45;;;;;;;2.00;1.20;;;20.60;99.90;;;;;;5049811;28;20461;-73
2022/06/07 10:22:43;;;;;;;1.50;1.40;;;20.70;99.90;;;;;;5050270;28;20475;-72
2022/06/07 10:25:15;;;;;;;1.97;1.20;;;20.80;99.90;;;;;;5044993;28;20463;-73
2022/06/07 10:27:51;;;;;;;1.20;1.10;;;20.60;99.90;;;;;;5050257;28;20823;-73
2022/06/07 10:30:22;;;;;;;1.53;1.00;;;20.50;99.90;;;;;;5049259;28;20890;-72
2022/06/07 10:33:03;;;;;;;4.27;1.27;;;20.40;99.90;;;;;;5050196;28;20475;-73
2022/06/07 10:35:45;;;;;;;1.87;1.23;;;20.30;99.90;;;;;;5049848;28;20471;-72
2022/06/07 10:38:24;;;;;;;1.30;1.10;;;20.20;99.90;;;;;;5049337;28;20470;-73
2022/06/07 10:41:00;;;;;;;1.20;1.10;;;20.10;99.90;;;;;;5049817;28;20462;-73
2022/06/07 10:43:32;;;;;;;1.40;1.30;;;20.00;99.90;;;;;;5047218;28;20857;-73
2022/06/07 10:46:00;;;;;;;2.20;1.20;;;20.00;99.90;;;;;;5050097;28;21205;-73
2022/06/07 10:48:34;;;;;;;1.57;1.33;;;20.00;99.90;;;;;;5049105;28;20469;-72
2022/06/07 10:52:20;;;;;;;1.57;1.17;;;20.00;99.90;;;;;;5050292;28;20467;-73
2022/06/07 10:54:01;;;;;;;1.40;1.30;;;20.10;99.90;;;;;;5049093;28;21218;-72
2022/06/07 10:56:32;;;;;;;1.50;1.40;;;20.00;99.90;;;;;;5049802;28;20463;-72
2022/06/07 10:59:02;;;;;;;1.60;1.07;;;20.00;99.90;;;;;;5049861;28;20470;-75
2022/06/07 11:01:35;;;;;;;3.77;1.23;;;20.00;99.90;;;;;;5049717;28;20463;-74
2022/06/07 11:10:08;;;;;;;2.77;1.63;;;20.00;99.90;;;;;;5028620;28;20505;-75
2022/06/07 11:12:46;;;;;;;2.40;1.47;;;19.90;99.90;;;;;;5030366;28;20460;-80
2022/06/07 11:15:17;;;;;;;1.53;1.40;;;19.80;99.90;;;;;;5046920;28;20853;-73
2022/06/07 11:17:48;;;;;;;1.70;1.23;;;19.80;99.90;;;;;;5053108;28;20450;-74
2022/06/07 11:20:24;;;;;;;2.20;1.30;;;19.80;99.90;;;;;;5052783;28;20463;-75
2022/06/07 11:22:56;;;;;;;1.53;1.27;;;20.00;99.90;;;;;;5052834;28;20509;-76
2022/06/07 11:25:34;;;;;;;1.30;1.20;;;20.00;99.90;;;;;;5052515;28;20491;-72
2022/06/07 11:28:06;;;;;;;1.87;1.30;;;20.20;99.90;;;;;;5052628;28;20463;-75
2022/06/07 11:30:53;;;;;;;3.40;1.50;;;20.20;99.90;;;;;;5052274;28;20523;-71
2022/06/07 11:37:30;;;;;;;2.80;1.50;;;20.00;99.90;;;;;;5071307;22;20574;-93
2022/06/07 11:43:47;;;;;;;1.57;1.23;;;19.80;99.90;;;;;;5028197;28;20478;-94
2022/06/07 11:46:57;;;;;;;1.40;1.30;;;19.80;99.90;;;;;;5025530;28;20476;-93
2022/06/07 11:49:48;;;;;;;1.23;1.13;;;19.70;99.90;;;;;;5022939;28;20497;-93
2022/06/07 11:56:16;;;;;;;1.50;1.40;;;19.80;99.90;;;;;;4994830;28;20485;-93
2022/06/07 11:59:41;;;;;;;1.47;1.37;;;19.90;99.90;;;;;;5020670;28;20568;-92
2022/06/07 12:02:30;;;;;;;1.93;1.43;;;20.20;99.90;;;;;;5022854;28;20468;-94
2022/06/07 12:05:05;;;;;;;2.53;1.60;;;20.40;99.90;;;;;;5018090;28;20493;-92
2022/06/07 12:07:46;;;;;;;1.50;1.40;;;20.50;99.90;;;;;;5026390;28;20881;-92
2022/06/07 12:10:29;;;;;;;1.90;1.43;;;20.60;99.90;;;;;;5036401;28;20464;-92
2022/06/07 12:13:01;;;;;;;4.30;1.30;;;20.70;99.90;;;;;;5035312;28;20543;-93
2022/06/07 12:15:37;;;;;;;2.20;1.33;;;20.70;99.90;;;;;;5037004;28;20918;-92
2022/06/07 12:18:20;;;;;;;1.50;1.40;;;20.70;99.90;;;;;;5040266;28;20520;-94
2022/06/07 12:37:57;;;;;;;1.40;1.30;;;20.60;99.90;;;;;;5061515;22;20519;-70
2022/06/07 12:40:31;;;;;;;2.10;1.43;;;20.70;99.90;;;;;;5045908;28;20467;-69
2022/06/07 12:42:57;;;;;;;2.43;1.50;;;20.80;99.90;;;;;;5051594;28;20487;-71
2022/06/07 12:45:27;;;;;;;2.40;1.60;;;20.90;99.90;;;;;;5051335;28;20483;-70
2022/06/07 12:47:56;;;;;;;2.70;1.77;;;21.00;99.90;;;;;;5051824;28;20464;-71
2022/06/07 12:50:28;;;;;;;3.83;2.60;;;21.00;99.90;;;;;;5051317;28;20456;-69
2022/06/07 12:52:56;;;;;;;1.37;1.27;;;21.00;99.90;;;;;;5051260;28;20476;-71
2022/06/07 12:55:28;;;;;;;2.20;1.43;;;21.00;99.90;;;;;;5051142;28;20459;-68
2022/06/07 12:57:58;;;;;;;1.43;1.33;;;21.10;99.90;;;;;;5051775;28;20455;-70
2022/06/07 13:00:28;;;;;;;4.03;1.40;;;21.10;99.90;;;;;;5051315;28;20470;-70
2022/06/07 13:03:00;;;;;;;1.47;1.37;;;21.10;99.90;;;;;;5051376;28;21006;-71
2022/06/07 13:05:31;;;;;;;1.40;1.30;;;21.30;99.90;;;;;;5051724;28;20487;-71
2022/06/07 13:08:01;;;;;;;2.20;1.40;;;21.40;99.90;;;;;;5050754;28;20893;-71
2022/06/07 13:10:32;;;;;;;2.73;1.30;;;21.50;99.90;;;;;;5051118;28;20462;-70
2022/06/07 13:13:01;;;;;;;2.80;1.40;;;21.60;99.90;;;;;;5050918;28;20476;-71
2022/06/07 13:15:31;;;;;;;2.53;1.60;;;21.70;99.90;;;;;;5050559;28;20454;-71
2022/06/07 13:18:04;;;;;;;1.40;1.30;;;21.80;99.90;;;;;;5050920;28;20538;-71
2022/06/07 13:20:35;;;;;;;1.40;1.30;;;21.70;99.90;;;;;;5049885;28;20460;-71
2022/06/07 13:23:12;;;;;;;1.87;1.60;;;21.70;99.90;;;;;;5050771;28;20557;-70
2022/06/07 13:25:40;;;;;;;1.27;1.17;;;21.70;99.90;;;;;;5050678;28;20486;-71
2022/06/07 13:28:14;;;;;;;1.93;1.00;;;21.80;99.90;;;;;;5049823;28;20474;-71
2022/06/07 13:30:43;;;;;;;1.93;1.20;;;21.90;99.90;;;;;;5050230;28;20467;-70
2022/06/07 13:33:29;;;;;;;1.30;1.20;;;22.00;99.90;;;;;;5050159;28;20479;-70
2022/06/07 13:36:00;;;;;;;2.03;1.37;;;22.20;99.90;;;;;;5049705;28;20470;-69
2022/06/07 13:38:32;;;;;;;1.33;1.23;;;22.30;99.90;;;;;;5049738;28;20469;-70
2022/06/07 13:41:18;;;;;;;2.30;1.60;;;22.50;99.90;;;;;;5050590;28;20463;-68
2022/06/07 13:43:53;;;;;;;2.00;1.23;;;22.60;99.90;;;;;;5049503;28;20489;-69
2022/06/07 13:46:24;;;;;;;2.03;1.30;;;22.80;99.50;;;;;;5050170;28;20463;-71
2022/06/07 13:54:29;;;;;;;1.57;1.10;;;22.90;99.90;;;;;;5050149;28;20466;-71
2022/06/07 13:56:56;;;;;;;1.60;1.50;;;22.90;99.90;;;;;;5049651;28;20506;-71
2022/06/07 13:59:22;;;;;;;1.10;1.00;;;22.80;99.90;;;;;;5049012;28;20472;-72
2022/06/07 14:01:52;;;;;;;1.50;1.10;;;22.80;99.90;;;;;;5049916;28;20456;-70
2022/06/07 14:04:22;;;;;;;1.73;1.10;;;22.70;98.70;;;;;;5049454;28;20533;-69
2022/06/07 14:06:51;;;;;;;1.97;0.90;;;22.70;99.90;;;;;;5049613;28;20959;-68